Time;durP1;ratioP1;P1;durP2;ratioP2;P2;SDS_P1;SDS_P2;PMS_P1;PMS_P2;Temp;Humidity;BMP_temperature;BMP_pressure;BME280_temperature;BME280_humidity;BME280_pressure;Samples;Min_cycle;Max_cycle;Signal;HPM_P1;HPM_P2
2023/05/18 00:01:06;;;;;;;10.88;2.80;;;;;;;6.84;77.12;102694.91;4996673;28;20127;-69
2023/05/18 00:03:32;;;;;;;3.65;2.50;;;;;;;6.84;76.78;102694.91;5009127;28;20591;-69
2023/05/18 00:06:03;;;;;;;10.80;3.50;;;;;;;6.83;76.33;102693.16;5001732;28;20038;-69
2023/05/18 00:08:30;;;;;;;8.70;2.58;;;;;;;6.78;76.80;102688.81;4989147;28;20089;-68
2023/05/18 00:10:56;;;;;;;8.98;2.60;;;;;;;6.72;77.85;102691.69;4990359;28;20037;-69
2023/05/18 00:13:21;;;;;;;7.82;2.83;;;;;;;6.71;77.24;102696.19;4989991;28;20250;-69
2023/05/18 00:15:46;;;;;;;5.85;2.78;;;;;;;6.70;78.07;102698.94;4989286;28;20015;-68
2023/05/18 00:18:12;;;;;;;5.05;2.65;;;;;;;6.63;78.01;102695.50;5000250;28;20101;-69
2023/05/18 00:20:37;;;;;;;12.30;4.25;;;;;;;6.59;78.39;102700.09;4989046;28;20038;-69
2023/05/18 00:23:02;;;;;;;7.45;2.80;;;;;;;6.55;77.56;102695.69;4994547;28;20049;-69
2023/05/18 00:25:28;;;;;;;4.18;2.55;;;;;;;6.53;78.07;102694.00;4989142;28;20450;-68
2023/05/18 00:27:53;;;;;;;10.50;2.58;;;;;;;6.50;78.00;102697.66;4989718;28;20108;-69
2023/05/18 00:30:18;;;;;;;9.38;2.67;;;;;;;6.47;77.13;102697.72;5005144;28;20042;-69
2023/05/18 00:32:44;;;;;;;11.77;3.30;;;;;;;6.45;77.71;102694.16;5009194;28;20021;-69
2023/05/18 00:35:10;;;;;;;12.15;2.60;;;;;;;6.42;77.09;102693.34;5003917;28;20427;-69
2023/05/18 00:37:36;;;;;;;7.38;2.35;;;;;;;6.41;77.49;102700.56;4988862;28;20104;-69
2023/05/18 00:40:05;;;;;;;7.85;3.10;;;;;;;6.34;78.46;102701.66;4991472;28;20045;-69
2023/05/18 00:42:30;;;;;;;10.15;3.05;;;;;;;6.33;77.21;102700.75;4998203;28;20030;-69
2023/05/18 00:44:56;;;;;;;6.50;2.63;;;;;;;6.31;77.19;102699.03;5008495;28;20141;-69
2023/05/18 00:47:21;;;;;;;8.43;3.33;;;;;;;6.28;77.85;102700.00;5006199;28;20114;-69
2023/05/18 00:49:46;;;;;;;6.20;3.22;;;;;;;6.26;77.72;102701.84;4988423;28;20088;-69
2023/05/18 00:52:12;;;;;;;6.32;2.63;;;;;;;6.24;77.80;102702.81;4989133;28;20048;-69
2023/05/18 00:54:37;;;;;;;9.73;3.75;;;;;;;6.19;78.66;102694.81;4988806;28;20109;-69
2023/05/18 00:57:04;;;;;;;6.90;2.72;;;;;;;6.13;78.46;102697.66;4989474;28;20069;-69
2023/05/18 00:59:29;;;;;;;10.63;2.92;;;;;;;6.12;78.55;102702.19;4988510;28;20478;-70
2023/05/18 01:01:55;;;;;;;9.68;2.45;;;;;;;6.12;77.92;102706.72;4987663;28;20091;-69
2023/05/18 01:04:20;;;;;;;5.90;2.78;;;;;;;6.08;78.54;102696.91;4987787;28;20038;-69
2023/05/18 01:06:46;;;;;;;5.10;3.00;;;;;;;6.06;79.44;102707.75;4988156;28;20542;-69
2023/05/18 01:09:12;;;;;;;12.07;4.35;;;;;;;6.01;79.49;102706.94;4988255;28;20057;-69
2023/05/18 01:12:00;;;;;;;9.20;3.38;;;;;;;6.02;78.76;102708.75;4998327;28;20510;-69
2023/05/18 01:14:35;;;;;;;5.68;2.58;;;;;;;6.01;78.31;102700.66;4987774;28;20057;-69
2023/05/18 01:17:16;;;;;;;10.32;3.25;;;;;;;5.98;78.88;102708.84;5000129;28;20046;-69
2023/05/18 01:20:09;;;;;;;6.63;2.58;;;;;;;5.96;78.33;102710.69;5006234;28;20124;-69
2023/05/18 01:22:47;;;;;;;11.77;2.80;;;;;;;5.94;78.10;102713.44;5006079;28;20029;-69
2023/05/18 01:25:31;;;;;;;5.25;2.78;;;;;;;5.94;77.63;102715.25;4987777;28;20049;-69
2023/05/18 01:28:05;;;;;;;6.05;3.25;;;;;;;5.89;78.52;102710.78;4989199;28;20030;-70
2023/05/18 01:30:38;;;;;;;5.63;2.78;;;;;;;5.85;79.41;102714.50;4988421;28;20034;-69
2023/05/18 01:33:08;;;;;;;5.35;2.70;;;;;;;5.82;78.71;102706.44;4989082;28;20560;-70
2023/05/18 01:35:35;;;;;;;5.78;2.78;;;;;;;5.78;79.14;102712.88;4987623;28;20034;-69
2023/05/18 01:38:01;;;;;;;8.93;3.10;;;;;;;5.71;79.30;102700.41;4988171;28;20061;-70
2023/05/18 01:40:40;;;;;;;8.07;3.40;;;;;;;5.75;79.03;102714.75;4987016;28;20038;-69
2023/05/18 01:43:14;;;;;;;7.70;2.90;;;;;;;5.71;78.86;102707.63;5001511;28;20541;-70
2023/05/18 01:45:45;;;;;;;6.18;3.28;;;;;;;5.72;78.75;102712.97;5007350;28;20040;-69
2023/05/18 01:48:15;;;;;;;6.07;2.95;;;;;;;5.70;78.77;102712.13;5004185;28;20037;-69
2023/05/18 01:50:47;;;;;;;8.48;3.70;;;;;;;5.70;79.64;102709.44;4987340;28;20034;-69
2023/05/18 01:53:22;;;;;;;5.80;3.25;;;;;;;5.69;79.00;102704.97;4986849;28;20038;-69
2023/05/18 01:55:51;;;;;;;10.68;3.13;;;;;;;5.66;79.18;102710.44;4987127;28;20435;-69
2023/05/18 01:58:17;;;;;;;7.38;3.28;;;;;;;5.63;80.88;102710.47;4990143;28;20151;-70
2023/05/18 02:00:45;;;;;;;7.28;3.00;;;;;;;5.58;79.61;102712.41;4987332;28;20026;-69
2023/05/18 02:03:12;;;;;;;9.82;3.08;;;;;;;5.57;79.08;102706.13;4992308;28;20097;-69
2023/05/18 02:05:37;;;;;;;8.20;3.30;;;;;;;5.58;79.52;102713.28;4987001;28;20339;-70
2023/05/18 02:08:03;;;;;;;5.82;2.83;;;;;;;5.59;80.61;102714.16;4986223;28;20170;-70
2023/05/18 02:10:28;;;;;;;11.20;3.13;;;;;;;5.58;79.55;102705.19;4987200;28;20034;-69
2023/05/18 02:12:54;;;;;;;11.10;4.07;;;;;;;5.59;79.22;102697.97;4987088;28;20120;-69
2023/05/18 02:15:19;;;;;;;8.68;2.85;;;;;;;5.57;79.62;102692.63;4987014;28;20034;-70
2023/05/18 02:17:47;;;;;;;9.15;3.65;;;;;;;5.57;79.72;102703.41;5003651;28;20083;-69
2023/05/18 02:20:17;;;;;;;8.40;2.92;;;;;;;5.56;79.65;102689.97;5005955;28;20120;-69
2023/05/18 02:22:43;;;;;;;7.80;3.42;;;;;;;5.56;80.37;102701.66;5001405;28;20038;-69
2023/05/18 02:25:09;;;;;;;11.43;3.67;;;;;;;5.54;80.06;102691.78;4986357;28;20454;-69
2023/05/18 02:27:35;;;;;;;7.60;2.97;;;;;;;5.53;79.90;102699.00;5001970;28;20041;-69
2023/05/18 02:30:03;;;;;;;7.78;2.70;;;;;;;5.52;81.30;102690.94;4988441;28;20046;-69
2023/05/18 02:32:32;;;;;;;6.45;3.33;;;;;;;5.47;81.02;102685.66;4988307;28;20037;-69
2023/05/18 02:35:05;;;;;;;7.82;2.85;;;;;;;5.47;80.80;102692.84;5063121;28;20391;-70
2023/05/18 02:37:33;;;;;;;6.53;3.50;;;;;;;5.47;80.88;102693.75;5058959;28;20032;-70
2023/05/18 02:39:59;;;;;;;7.10;2.80;;;;;;;5.46;81.40;102683.88;5043846;28;20120;-70
2023/05/18 02:42:24;;;;;;;5.18;3.38;;;;;;;5.45;80.47;102692.88;5048843;28;20036;-70
2023/05/18 02:44:50;;;;;;;9.45;3.13;;;;;;;5.42;80.94;102687.56;5062115;28;20020;-70
2023/05/18 02:47:15;;;;;;;10.60;3.10;;;;;;;5.40;80.55;102691.19;5062256;28;20035;-70
2023/05/18 02:49:40;;;;;;;8.05;3.20;;;;;;;5.40;79.99;102688.50;5048343;28;20029;-69
2023/05/18 02:52:06;;;;;;;7.18;2.70;;;;;;;5.37;80.47;102684.06;5043899;28;20134;-70
2023/05/18 02:54:31;;;;;;;7.05;3.25;;;;;;;5.34;80.91;102684.13;5041346;28;20025;-70
2023/05/18 02:56:57;;;;;;;9.68;3.25;;;;;;;5.33;80.46;102688.63;5055819;28;20041;-70
2023/05/18 02:59:32;;;;;;;7.63;2.65;;;;;;;5.27;81.49;102677.97;5041664;28;20041;-70
2023/05/18 03:01:57;;;;;;;10.20;3.38;;;;;;;5.26;81.78;102683.38;5042768;28;20452;-70
2023/05/18 03:04:24;;;;;;;6.72;3.28;;;;;;;5.24;82.88;102688.81;5059829;28;20020;-69
2023/05/18 03:06:52;;;;;;;13.10;3.15;;;;;;;5.21;82.84;102688.00;5053345;28;20702;-69
2023/05/18 03:09:21;;;;;;;5.15;2.95;;;;;;;5.15;82.75;102683.63;5024375;28;20025;-69
2023/05/18 03:11:48;;;;;;;8.95;3.33;;;;;;;5.12;82.69;102689.94;5041513;28;20064;-70
2023/05/18 03:14:14;;;;;;;8.23;3.28;;;;;;;5.12;83.46;102683.66;5024665;28;20025;-69
2023/05/18 03:16:39;;;;;;;9.85;4.07;;;;;;;5.08;82.94;102685.56;5041668;28;20116;-69
2023/05/18 03:19:12;;;;;;;10.35;3.83;;;;;;;5.07;83.34;102694.56;5045977;28;20384;-70
2023/05/18 03:21:39;;;;;;;7.93;3.75;;;;;;;5.06;82.56;102686.50;5055220;28;20025;-70
2023/05/18 03:24:05;;;;;;;7.75;3.65;;;;;;;5.05;82.05;102684.72;5040723;28;20361;-70
2023/05/18 03:26:33;;;;;;;8.30;3.22;;;;;;;5.05;81.82;102687.44;5040846;28;20029;-70
2023/05/18 03:29:00;;;;;;;5.97;2.90;;;;;;;5.04;82.06;102691.94;5032491;28;20045;-70
2023/05/18 03:31:26;;;;;;;10.88;3.35;;;;;;;5.01;82.80;102689.28;5025127;28;20033;-70
2023/05/18 03:33:53;;;;;;;5.57;3.55;;;;;;;4.99;82.02;102696.53;5041276;28;20413;-70
2023/05/18 03:36:21;;;;;;;13.00;3.67;;;;;;;5.01;83.79;102685.69;5042670;28;20136;-69
2023/05/18 03:38:46;;;;;;;4.90;3.22;;;;;;;4.95;82.98;102693.94;5040287;28;20025;-69
2023/05/18 03:41:13;;;;;;;6.40;3.22;;;;;;;4.95;82.35;102686.72;5024383;28;20093;-70
2023/05/18 03:43:38;;;;;;;9.38;3.50;;;;;;;4.94;83.10;102681.34;5043608;28;20120;-70
2023/05/18 03:46:05;;;;;;;9.48;3.38;;;;;;;4.94;82.34;102684.03;5030092;28;20516;-70
2023/05/18 03:48:30;;;;;;;10.82;3.53;;;;;;;4.95;82.12;102686.72;5028370;28;20092;-70
2023/05/18 03:50:56;;;;;;;10.25;3.67;;;;;;;4.94;82.60;102692.13;5027796;28;20502;-70
2023/05/18 03:53:23;;;;;;;9.80;3.53;;;;;;;4.91;82.27;102689.50;5026865;28;20111;-70
2023/05/18 03:55:50;;;;;;;12.02;3.70;;;;;;;4.91;84.00;102689.50;5027577;28;20512;-69
2023/05/18 03:58:16;;;;;;;9.00;3.25;;;;;;;4.89;82.36;102694.91;5028040;28;20038;-70
2023/05/18 04:00:46;;;;;;;7.45;3.33;;;;;;;4.92;82.24;102692.16;5027729;28;20025;-70
2023/05/18 04:03:13;;;;;;;6.80;3.72;;;;;;;4.94;82.11;102689.44;5035685;28;20037;-70
2023/05/18 04:05:42;;;;;;;8.95;3.40;;;;;;;4.93;81.75;102695.75;5032511;28;20552;-70
2023/05/18 04:08:07;;;;;;;5.38;3.30;;;;;;;4.96;82.30;102701.09;5030744;28;20039;-70
2023/05/18 04:10:34;;;;;;;11.23;3.42;;;;;;;4.97;81.30;102697.47;5047127;28;20362;-70
2023/05/18 04:12:59;;;;;;;7.25;3.55;;;;;;;5.01;81.40;102697.38;5045589;28;20028;-70
2023/05/18 04:15:25;;;;;;;9.18;3.67;;;;;;;5.07;82.12;102707.16;5030668;28;20350;-70
2023/05/18 04:17:50;;;;;;;9.98;3.70;;;;;;;5.09;81.82;102708.91;5047240;28;20499;-70
2023/05/18 04:20:17;;;;;;;8.43;3.70;;;;;;;5.10;82.13;102708.00;5032325;28;20029;-70
2023/05/18 04:22:46;;;;;;;8.00;3.95;;;;;;;5.12;84.04;102708.84;5010085;28;20095;-70
2023/05/18 04:25:16;;;;;;;9.98;4.40;;;;;;;5.11;83.54;102708.88;5026932;28;20022;-70
2023/05/18 04:27:42;;;;;;;6.93;3.67;;;;;;;5.14;83.36;102714.22;5027559;28;20496;-70
2023/05/18 04:30:11;;;;;;;7.60;3.88;;;;;;;5.18;83.52;102712.34;5010808;28;20441;-70
2023/05/18 04:32:41;;;;;;;8.85;3.70;;;;;;;5.21;82.52;102718.56;5026825;28;20017;-70
2023/05/18 04:35:08;;;;;;;12.32;4.75;;;;;;;5.23;83.86;102716.75;5027136;28;20509;-70
2023/05/18 04:37:34;;;;;;;9.38;3.83;;;;;;;5.27;84.15;102715.75;5009253;28;20044;-70
2023/05/18 04:40:05;;;;;;;6.45;3.45;;;;;;;5.33;82.41;102723.72;5027167;28;20122;-70
2023/05/18 04:42:30;;;;;;;12.50;4.03;;;;;;;5.40;81.97;102716.38;5028364;28;20037;-70
2023/05/18 04:44:56;;;;;;;6.47;3.45;;;;;;;5.45;81.91;102725.25;5027177;28;20044;-70
2023/05/18 04:47:22;;;;;;;12.18;4.45;;;;;;;5.49;83.10;102720.69;5026729;28;20490;-70
2023/05/18 04:49:51;;;;;;;6.20;3.85;;;;;;;5.53;82.93;102728.69;5010309;28;20029;-70
2023/05/18 04:52:18;;;;;;;6.85;3.38;;;;;;;5.57;83.00;102732.22;5026228;28;20441;-70
2023/05/18 04:54:44;;;;;;;10.82;4.53;;;;;;;5.63;82.44;102734.78;5025630;28;20061;-70
2023/05/18 04:57:09;;;;;;;9.95;3.88;;;;;;;5.65;83.02;102732.06;5009346;28;20489;-70
2023/05/18 04:59:35;;;;;;;9.93;3.45;;;;;;;5.71;82.27;102726.53;5026747;28;20033;-70
2023/05/18 05:02:02;;;;;;;20.05;5.93;;;;;;;5.74;82.33;102729.19;5026236;28;20025;-71
2023/05/18 05:04:28;;;;;;;10.00;4.53;;;;;;;5.77;81.75;102738.06;5041382;28;20029;-70
2023/05/18 05:06:53;;;;;;;5.80;3.40;;;;;;;5.81;81.89;102733.50;5026180;28;20048;-70
2023/05/18 05:09:19;;;;;;;12.18;3.90;;;;;;;5.82;82.19;102728.06;5026096;28;20034;-70
2023/05/18 05:11:44;;;;;;;8.05;4.18;;;;;;;5.84;82.91;102737.03;5017403;28;20029;-70
2023/05/18 05:14:10;;;;;;;12.43;4.50;;;;;;;5.84;82.76;102728.94;5026132;28;20117;-70
2023/05/18 05:16:36;;;;;;;14.90;4.70;;;;;;;5.87;82.94;102734.28;5026408;28;20033;-70
2023/05/18 05:19:02;;;;;;;7.78;4.00;;;;;;;5.84;83.03;102722.63;5026845;28;20136;-70
2023/05/18 05:21:27;;;;;;;9.35;4.60;;;;;;;5.93;82.33;102729.69;5009964;28;20032;-70
2023/05/18 05:23:52;;;;;;;10.00;4.72;;;;;;;5.89;82.85;102723.41;5025030;28;20108;-70
2023/05/18 05:26:20;;;;;;;10.15;4.53;;;;;;;5.96;82.44;102729.59;5009297;28;20116;-70
2023/05/18 05:28:46;;;;;;;7.43;3.85;;;;;;;6.00;83.27;102742.09;5025193;28;20120;-70
2023/05/18 05:31:12;;;;;;;12.38;5.22;;;;;;;6.02;82.67;102738.47;5026084;28;20124;-70
2023/05/18 05:33:38;;;;;;;8.90;4.20;;;;;;;6.04;82.92;102738.41;5008894;28;20041;-70
2023/05/18 05:36:04;;;;;;;10.25;4.40;;;;;;;6.06;83.09;102739.25;5027197;28;20492;-70
2023/05/18 05:38:31;;;;;;;7.43;4.53;;;;;;;6.10;83.05;102741.84;5025409;28;20579;-70
2023/05/18 05:40:57;;;;;;;7.75;4.13;;;;;;;6.16;82.81;102730.03;5009170;28;20028;-69
2023/05/18 05:43:22;;;;;;;10.43;3.78;;;;;;;6.17;83.20;102734.50;5024960;28;20034;-70
2023/05/18 05:45:48;;;;;;;8.70;4.88;;;;;;;6.23;83.19;102733.47;5025792;28;20032;-70
2023/05/18 05:48:13;;;;;;;12.95;4.78;;;;;;;6.23;82.56;102731.66;5025190;28;20029;-70
2023/05/18 05:50:39;;;;;;;7.25;4.55;;;;;;;6.28;81.95;102734.25;5025458;28;20033;-69
2023/05/18 05:53:04;;;;;;;8.05;4.38;;;;;;;6.37;82.47;102742.13;5024785;28;20132;-70
2023/05/18 05:55:39;;;;;;;7.70;4.18;;;;;;;6.53;81.93;102739.94;5025253;28;20087;-70
2023/05/18 05:58:08;;;;;;;12.07;4.70;;;;;;;6.62;80.88;102745.09;5026028;28;20037;-70
2023/05/18 06:00:35;;;;;;;15.73;5.60;;;;;;;6.65;80.48;102737.81;5025511;28;20037;-70
2023/05/18 06:03:02;;;;;;;8.32;4.35;;;;;;;6.60;80.86;102733.44;5029238;28;20040;-71
2023/05/18 06:05:34;;;;;;;12.63;5.47;;;;;;;6.68;80.50;102730.56;5009985;28;20036;-70
2023/05/18 06:08:00;;;;;;;6.93;4.22;;;;;;;6.77;80.38;102736.63;5025086;28;20085;-70
2023/05/18 06:10:25;;;;;;;16.13;5.82;;;;;;;6.89;82.11;102743.50;5037105;28;20040;-71
2023/05/18 06:12:51;;;;;;;11.07;4.40;;;;;;;7.01;79.54;102737.78;5031075;28;20423;-70
2023/05/18 06:15:18;;;;;;;8.18;3.90;;;;;;;7.09;78.64;102732.16;5009070;28;20124;-70
2023/05/18 06:17:44;;;;;;;11.02;5.40;;;;;;;7.14;80.19;102724.78;5025027;28;20149;-70
2023/05/18 06:20:11;;;;;;;15.50;4.68;;;;;;;7.30;79.42;102741.47;5024821;28;20120;-70
2023/05/18 06:22:37;;;;;;;9.23;5.25;;;;;;;7.51;79.56;102740.00;5025539;28;20040;-71
2023/05/18 06:25:23;;;;;;;10.60;5.10;;;;;;;7.62;77.34;102745.97;5024880;28;20068;-70
2023/05/18 06:28:01;;;;;;;15.57;6.28;;;;;;;7.64;77.03;102734.13;5024449;28;20931;-71
2023/05/18 06:30:47;;;;;;;11.10;4.10;;;;;;;7.71;77.06;102744.81;5026262;28;20136;-70
2023/05/18 06:33:20;;;;;;;12.82;4.47;;;;;;;7.81;76.93;102754.44;5010919;28;20099;-70
2023/05/18 06:35:45;;;;;;;11.52;4.30;;;;;;;7.90;75.87;102746.91;5044906;28;20357;-70
2023/05/18 06:38:11;;;;;;;10.63;4.03;;;;;;;8.08;76.94;102747.28;5041105;28;20021;-70
2023/05/18 06:40:36;;;;;;;13.82;5.10;;;;;;;8.16;75.52;102753.34;5025377;28;20041;-70
2023/05/18 06:43:02;;;;;;;11.25;4.80;;;;;;;8.18;74.56;102744.22;5038257;28;20374;-70
2023/05/18 06:45:40;;;;;;;19.38;4.93;;;;;;;8.36;75.59;102747.28;5045193;28;20140;-70
2023/05/18 06:48:24;;;;;;;11.43;4.68;;;;;;;8.42;73.94;102756.13;5017843;28;20316;-70
2023/05/18 06:50:49;;;;;;;9.02;4.10;;;;;;;8.50;73.86;102752.28;5025048;28;20469;-70
2023/05/18 06:53:15;;;;;;;13.23;5.25;;;;;;;8.51;73.09;102741.38;5025013;28;20099;-70
2023/05/18 06:55:40;;;;;;;12.60;4.50;;;;;;;8.61;73.01;102747.38;5025361;28;20342;-70
2023/05/18 06:58:06;;;;;;;8.38;4.35;;;;;;;8.67;73.63;102750.78;5023936;28;20038;-70
2023/05/18 07:00:32;;;;;;;11.05;3.90;;;;;;;8.67;71.91;102739.03;5022869;28;20052;-70
2023/05/18 07:02:57;;;;;;;9.55;4.50;;;;;;;8.81;72.11;102753.03;5030421;28;20489;-70
2023/05/18 07:05:23;;;;;;;15.70;5.03;;;;;;;8.79;72.02;102754.00;5034605;28;20024;-69
2023/05/18 07:07:49;;;;;;;10.63;4.20;;;;;;;8.73;70.80;102752.41;5023830;28;20489;-70
2023/05/18 07:10:14;;;;;;;11.80;5.18;;;;;;;8.76;69.96;102757.69;5024235;28;20075;-70
2023/05/18 07:12:39;;;;;;;16.38;4.72;;;;;;;8.84;70.88;102771.03;5032590;28;20617;-70
2023/05/18 07:15:06;;;;;;;12.48;5.00;;;;;;;8.96;71.40;102764.31;5046007;28;20068;-70
2023/05/18 07:17:32;;;;;;;10.50;4.80;;;;;;;9.05;69.04;102783.88;5045925;28;20051;-71
2023/05/18 07:19:57;;;;;;;12.27;4.43;;;;;;;9.11;71.13;102769.19;5029500;28;20068;-70
2023/05/18 07:22:22;;;;;;;9.00;4.40;;;;;;;9.24;69.27;102780.50;5028856;28;20038;-70
2023/05/18 07:24:48;;;;;;;14.32;4.13;;;;;;;9.35;70.06;102768.28;5027910;28;20041;-70
2023/05/18 07:27:13;;;;;;;8.85;4.80;;;;;;;9.40;68.61;102771.72;5028096;28;20440;-70
2023/05/18 07:29:38;;;;;;;11.27;4.57;;;;;;;9.45;68.99;102772.44;5029208;28;20373;-69
2023/05/18 07:32:04;;;;;;;11.30;4.57;;;;;;;9.49;69.47;102781.38;5028572;28;20033;-70
2023/05/18 07:34:30;;;;;;;14.80;5.47;;;;;;;9.39;68.96;102772.66;5027850;28;20073;-70
2023/05/18 07:36:56;;;;;;;14.35;4.95;;;;;;;9.35;68.29;102772.84;5029635;28;20041;-69
2023/05/18 07:39:27;;;;;;;12.35;4.80;;;;;;;9.39;69.64;102779.94;5026773;28;20177;-70
2023/05/18 07:41:53;;;;;;;9.68;5.05;;;;;;;9.49;68.59;102775.06;5039091;28;21057;-70
2023/05/18 07:44:18;;;;;;;10.57;5.38;;;;;;;9.62;70.13;102773.66;5027474;28;20018;-70
2023/05/18 07:46:43;;;;;;;12.88;4.30;;;;;;;9.81;70.91;102776.56;5029717;28;20029;-70
2023/05/18 07:49:09;;;;;;;10.10;4.80;;;;;;;9.98;68.31;102784.97;5029045;28;20052;-70
2023/05/18 07:51:34;;;;;;;12.82;5.10;;;;;;;10.17;70.52;102777.84;5029151;28;20044;-70
2023/05/18 07:53:59;;;;;;;14.57;4.85;;;;;;;10.45;70.31;102782.22;5029172;28;20102;-70
2023/05/18 07:56:25;;;;;;;12.95;5.10;;;;;;;10.61;65.64;102794.22;5028867;28;20486;-70
2023/05/18 07:58:51;;;;;;;12.55;4.47;;;;;;;10.65;65.20;102784.09;5046397;28;20035;-70
2023/05/18 08:01:16;;;;;;;11.35;4.65;;;;;;;10.79;65.76;102786.25;5049126;28;20381;-70
2023/05/18 08:03:41;;;;;;;11.70;4.88;;;;;;;11.06;65.84;102785.06;5048071;28;20062;-70
2023/05/18 08:06:07;;;;;;;14.27;4.78;;;;;;;11.54;63.09;102789.28;5045629;28;20033;-69
2023/05/18 08:08:35;;;;;;;9.15;4.55;;;;;;;12.19;65.32;102784.47;5028245;28;20044;-70
2023/05/18 08:11:00;;;;;;;9.88;4.30;;;;;;;12.53;59.96;102780.97;5029208;28;20025;-70
2023/05/18 08:13:25;;;;;;;9.88;4.65;;;;;;;12.89;58.57;102778.22;5029111;28;20044;-70
2023/05/18 08:15:51;;;;;;;12.77;3.95;;;;;;;13.44;60.17;102780.84;5027616;28;20519;-69
2023/05/18 08:18:16;;;;;;;8.93;4.10;;;;;;;14.00;56.25;102776.84;5028401;28;20064;-69
2023/05/18 08:20:42;;;;;;;8.25;3.95;;;;;;;13.87;54.30;102781.25;5028427;28;20021;-69
2023/05/18 08:23:08;;;;;;;9.20;3.90;;;;;;;14.32;56.38;102779.63;5027872;28;20339;-70
2023/05/18 08:25:33;;;;;;;9.77;4.13;;;;;;;14.67;53.71;102782.19;5035874;28;20147;-69
2023/05/18 08:27:58;;;;;;;15.70;4.15;;;;;;;14.63;51.54;102780.59;5028453;28;20051;-69
2023/05/18 08:30:25;;;;;;;10.85;4.20;;;;;;;14.56;53.76;102782.84;5010893;28;20022;-69
2023/05/18 08:32:51;;;;;;;11.93;4.55;;;;;;;14.97;53.43;102777.66;5026846;28;20029;-69
2023/05/18 08:35:16;;;;;;;9.20;3.55;;;;;;;15.05;50.42;102769.81;5028133;28;20075;-69
2023/05/18 08:37:41;;;;;;;11.00;3.92;;;;;;;15.03;53.91;102763.56;5027521;28;20598;-70
2023/05/18 08:40:10;;;;;;;12.13;3.60;;;;;;;15.17;50.18;102770.06;5027944;28;20040;-70
2023/05/18 08:42:41;;;;;;;16.70;4.25;;;;;;;15.26;48.89;102770.38;5027539;28;20481;-69
2023/05/18 08:45:12;;;;;;;12.00;3.70;;;;;;;15.04;50.69;102767.19;5027284;28;20112;-69
2023/05/18 08:47:39;;;;;;;11.40;4.18;;;;;;;15.20;52.75;102765.28;5028131;28;20133;-70
2023/05/18 08:50:05;;;;;;;11.55;3.88;;;;;;;15.24;48.56;102753.13;5027963;28;20561;-70
2023/05/18 08:52:41;;;;;;;9.98;4.05;;;;;;;14.96;51.15;102766.75;5026436;28;20481;-69
2023/05/18 08:55:11;;;;;;;11.30;3.50;;;;;;;14.62;47.47;102759.66;5027827;28;20048;-69
2023/05/18 08:57:38;;;;;;;12.23;3.65;;;;;;;14.50;50.24;102753.03;5025790;28;20029;-70
2023/05/18 09:00:04;;;;;;;10.10;3.58;;;;;;;14.84;49.68;102754.69;5028091;28;20049;-70
2023/05/18 09:02:32;;;;;;;12.88;3.90;;;;;;;14.65;50.90;102751.28;5028089;28;20435;-70
2023/05/18 09:04:57;;;;;;;9.25;3.83;;;;;;;14.71;50.44;102759.13;5026868;28;20450;-69
2023/05/18 09:07:26;;;;;;;10.82;4.20;;;;;;;14.31;49.29;102755.94;5027149;28;20045;-69
2023/05/18 09:09:54;;;;;;;9.48;3.70;;;;;;;14.15;53.06;102753.19;5027492;28;20664;-69
2023/05/18 09:12:21;;;;;;;12.82;4.40;;;;;;;14.07;49.87;102751.88;5031437;28;20029;-69
2023/05/18 09:14:47;;;;;;;9.70;3.65;;;;;;;13.90;49.78;102745.50;5047546;28;20484;-69
2023/05/18 09:17:13;;;;;;;12.63;4.20;;;;;;;13.68;51.81;102747.66;5042381;28;20088;-70
2023/05/18 09:19:38;;;;;;;12.32;3.88;;;;;;;13.70;52.49;102749.31;5027392;28;20489;-69
2023/05/18 09:22:04;;;;;;;8.32;4.35;;;;;;;13.80;52.61;102741.50;5027552;28;20037;-70
2023/05/18 09:24:29;;;;;;;8.02;3.50;;;;;;;14.12;48.55;102747.88;5033899;28;20024;-69
2023/05/18 09:26:55;;;;;;;11.07;3.55;;;;;;;14.15;50.81;102741.38;5042616;28;20090;-70
2023/05/18 09:29:22;;;;;;;13.07;3.65;;;;;;;13.72;50.13;102752.00;5025896;28;20391;-70
2023/05/18 09:31:48;;;;;;;8.68;3.90;;;;;;;13.41;51.34;102750.03;5026110;28;20529;-69
2023/05/18 09:34:14;;;;;;;19.23;3.75;;;;;;;13.94;54.14;102733.41;5026865;28;20071;-70
2023/05/18 09:36:41;;;;;;;14.52;4.00;;;;;;;14.13;49.94;102740.56;5027429;28;20051;-70
2023/05/18 09:39:10;;;;;;;9.13;4.50;;;;;;;14.21;54.12;102730.06;5026012;28;20095;-69
2023/05/18 09:41:39;;;;;;;9.98;3.75;;;;;;;14.33;48.79;102742.19;5025412;28;20033;-70
2023/05/18 09:44:08;;;;;;;10.60;3.70;;;;;;;14.26;51.81;102737.03;5045947;28;20037;-70
2023/05/18 09:46:39;;;;;;;9.98;4.03;;;;;;;14.40;50.34;102744.44;5028454;28;20326;-69
2023/05/18 09:49:06;;;;;;;9.80;3.90;;;;;;;14.63;52.82;102734.03;5027172;28;20044;-69
2023/05/18 09:51:37;;;;;;;12.75;4.07;;;;;;;14.69;50.88;102730.94;5027665;28;20037;-69
2023/05/18 09:54:06;;;;;;;9.57;3.53;;;;;;;14.58;48.33;102733.44;5025925;28;20041;-70
2023/05/18 09:56:35;;;;;;;10.38;3.80;;;;;;;14.87;50.35;102727.06;5043969;28;20029;-70
2023/05/18 09:59:11;;;;;;;14.05;3.85;;;;;;;15.17;48.94;102731.69;5040845;28;20497;-70
2023/05/18 10:01:53;;;;;;;11.73;4.15;;;;;;;15.67;49.69;102728.53;5027028;28;20033;-70
2023/05/18 10:04:19;;;;;;;8.73;3.35;;;;;;;15.63;43.36;102732.41;5024947;28;20029;-70
2023/05/18 10:06:48;;;;;;;8.18;3.40;;;;;;;15.38;44.96;102729.44;5027032;28;20504;-70
2023/05/18 10:09:15;;;;;;;7.82;3.10;;;;;;;15.62;46.53;102719.69;5026198;28;20052;-69
2023/05/18 10:11:41;;;;;;;11.35;3.55;;;;;;;16.00;45.74;102719.09;5025019;28;20033;-70
2023/05/18 10:14:10;;;;;;;7.95;3.53;;;;;;;16.22;44.29;102718.56;5025109;28;20087;-70
2023/05/18 10:16:35;;;;;;;9.05;4.10;;;;;;;16.66;45.70;102717.44;5026984;28;20520;-69
2023/05/18 10:19:05;;;;;;;11.43;3.47;;;;;;;16.68;44.19;102709.97;5027103;28;20084;-70
2023/05/18 10:21:33;;;;;;;11.52;4.05;;;;;;;17.11;45.15;102716.13;5031942;28;20107;-69
2023/05/18 10:24:00;;;;;;;8.13;3.60;;;;;;;17.61;44.50;102711.66;5026217;28;20029;-69
2023/05/18 10:26:27;;;;;;;10.00;3.42;;;;;;;17.67;42.36;102702.94;5025802;28;20033;-70
2023/05/18 10:28:55;;;;;;;55.42;5.47;;;;;;;17.73;41.39;102699.78;5026827;28;20057;-69
2023/05/18 10:31:22;;;;;;;10.20;3.10;;;;;;;18.19;45.53;102701.88;5024562;28;20021;-70
2023/05/18 10:33:50;;;;;;;8.05;3.45;;;;;;;18.79;42.80;102703.75;5026182;28;20057;-69
2023/05/18 10:36:16;;;;;;;7.88;3.63;;;;;;;18.85;41.01;102699.63;5024886;28;20517;-69
2023/05/18 10:38:44;;;;;;;12.73;3.83;;;;;;;19.02;40.00;102701.91;5025768;28;20037;-69
2023/05/18 10:41:11;;;;;;;10.25;3.97;;;;;;;19.17;40.89;102704.50;5025937;28;20568;-67
2023/05/18 10:43:36;;;;;;;11.02;3.70;;;;;;;19.09;38.31;102699.56;5025156;28;20030;-68
2023/05/18 10:46:06;;;;;;;14.10;4.50;;;;;;;18.38;37.59;102708.75;5027037;28;20048;-68
2023/05/18 10:48:37;;;;;;;9.10;3.65;;;;;;;18.13;41.05;102688.56;5024911;28;20052;-67
2023/05/18 10:51:05;;;;;;;14.25;4.20;;;;;;;18.12;39.56;102699.69;5026456;28;20049;-70
2023/05/18 10:53:32;;;;;;;6.88;4.25;;;;;;;17.81;39.93;102690.94;5007892;28;20505;-69
2023/05/18 10:55:58;;;;;;;9.48;3.63;;;;;;;18.12;41.66;102694.19;5027326;28;20683;-69
2023/05/18 10:58:28;;;;;;;10.20;4.15;;;;;;;18.45;38.39;102696.25;5026683;28;20138;-69
2023/05/18 11:00:58;;;;;;;12.00;3.60;;;;;;;19.00;42.01;102686.50;5030594;28;20041;-69
2023/05/18 11:03:25;;;;;;;11.48;3.90;;;;;;;19.30;42.67;102689.56;5028016;28;20091;-69
2023/05/18 11:06:09;;;;;;;13.05;4.20;;;;;;;19.51;40.25;102686.09;5027211;28;20029;-69
2023/05/18 11:08:48;;;;;;;10.45;4.40;;;;;;;19.44;39.95;102676.53;5029326;28;20038;-69
2023/05/18 11:11:14;;;;;;;8.90;4.32;;;;;;;19.56;36.90;102678.31;5029680;28;20034;-70
2023/05/18 11:13:47;;;;;;;11.10;4.47;;;;;;;19.58;38.45;102679.97;5043040;28;20033;-69
2023/05/18 11:16:14;;;;;;;8.77;4.28;;;;;;;19.72;37.64;102676.06;5034425;28;20141;-69
2023/05/18 11:18:50;;;;;;;15.80;4.70;;;;;;;20.09;40.21;102681.31;5036191;28;20090;-70
2023/05/18 11:21:23;;;;;;;9.27;4.00;;;;;;;19.93;37.50;102676.19;5029371;28;20120;-70
2023/05/18 11:24:19;;;;;;;10.50;4.65;;;;;;;19.09;37.45;102680.25;5028929;28;20046;-69
2023/05/18 11:26:58;;;;;;;9.27;4.13;;;;;;;18.64;40.71;102670.91;5029508;28;20409;-69
2023/05/18 11:29:35;;;;;;;14.35;4.82;;;;;;;18.86;42.71;102674.66;5029091;28;20033;-70